createdAt,value
2023-04-13T00:01:11.164Z,99418.31
2023-04-13T00:03:39.419Z,99410.25
2023-04-13T00:06:10.611Z,99416.44
2023-04-13T00:08:42.805Z,99415.38
2023-04-13T00:11:10.190Z,99415.34
2023-04-13T00:13:41.291Z,99414.78
2023-04-13T00:16:11.546Z,99412.09
2023-04-13T00:18:38.318Z,99398.66
2023-04-13T00:21:05.470Z,99398.38
2023-04-13T00:23:32.429Z,99399.19
2023-04-13T00:26:01.261Z,99398.38
2023-04-13T00:28:29.531Z,99391.38
2023-04-13T00:30:58.421Z,99396.22
2023-04-13T00:33:24.823Z,99392.47
2023-04-13T00:35:51.747Z,99382.75
2023-04-13T00:38:18.762Z,99384.66
2023-04-13T00:40:45.740Z,99383.56
2023-04-13T00:43:12.958Z,99385.47
2023-04-13T00:45:40.207Z,99380.88
2023-04-13T00:48:10.701Z,99374.97
2023-04-13T00:50:38.139Z,99376.31
2023-04-13T00:53:11.558Z,99382.78
2023-04-13T00:55:39.412Z,99377.38
2023-04-13T00:58:08.211Z,99387.06
2023-04-13T01:00:39.544Z,99381.13
2023-04-13T01:03:07.391Z,99363.91
2023-04-13T01:05:43.093Z,99368.44
2023-04-13T01:08:24.639Z,99369.28
2023-04-13T01:10:54.614Z,99369.28
2023-04-13T01:13:29.248Z,99367.91
2023-04-13T01:16:19.944Z,99362.00
2023-04-13T01:18:53.135Z,99365.47
2023-04-13T01:21:24.741Z,99373.28
2023-04-13T01:24:39.212Z,99367.59
2023-04-13T01:27:31.585Z,99364.91
2023-04-13T01:29:58.868Z,99355.78
2023-04-13T01:32:27.083Z,99370.31
2023-04-13T01:34:54.305Z,99359.00
2023-04-13T01:37:25.637Z,99364.66
2023-04-13T01:39:53.796Z,99361.97
2023-04-13T01:42:27.548Z,99354.44
2023-04-13T01:44:54.925Z,99363.03
2023-04-13T01:47:25.496Z,99351.47
2023-04-13T01:50:29.817Z,99349.06
2023-04-13T01:53:19.781Z,99346.66
2023-04-13T01:55:48.486Z,99344.47
2023-04-13T01:58:18.598Z,99344.75
2023-04-13T02:00:54.386Z,99345.84
2023-04-13T02:03:22.524Z,99340.47
2023-04-13T02:05:50.254Z,99350.16
2023-04-13T02:08:18.386Z,99339.66
2023-04-13T02:10:46.918Z,99337.75
2023-04-13T02:13:13.465Z,99336.97
2023-04-13T02:15:41.495Z,99339.66
2023-04-13T02:18:08.528Z,99342.03
2023-04-13T02:20:43.906Z,99338.84
2023-04-13T02:23:17.918Z,99339.91
2023-04-13T02:25:47.199Z,99338.56
2023-04-13T02:28:15.869Z,99337.53
2023-04-13T02:30:42.601Z,99333.19
2023-04-13T02:33:09.617Z,99343.72
2023-04-13T02:35:39.238Z,99338.34
2023-04-13T02:38:06.787Z,99352.03
2023-04-13T02:40:33.599Z,99356.91
2023-04-13T02:43:00.200Z,99348.53
2023-04-13T02:45:28.705Z,99343.94
2023-04-13T02:47:55.195Z,99349.06
2023-04-13T02:50:21.847Z,99348.00
2023-04-13T02:52:57.316Z,99352.81
2023-04-13T02:55:23.826Z,99350.94
2023-04-13T02:57:59.640Z,99350.69
2023-04-13T03:00:26.708Z,99353.94
2023-04-13T03:03:00.393Z,99352.28
2023-04-13T03:05:32.332Z,99352.28
2023-04-13T03:07:59.807Z,99351.22
2023-04-13T03:10:27.244Z,99349.84
2023-04-13T03:12:56.814Z,99355.81
2023-04-13T03:15:23.622Z,99353.13
2023-04-13T03:17:50.128Z,99350.66
2023-04-13T03:20:23.672Z,99352.28
2023-04-13T03:22:58.467Z,99353.91
2023-04-13T03:25:27.069Z,99351.22
2023-04-13T03:27:53.495Z,99346.63
2023-04-13T03:30:22.850Z,99343.66
2023-04-13T03:32:55.226Z,99341.78
2023-04-13T03:35:24.761Z,99344.22
2023-04-13T03:37:52.292Z,99352.03
2023-04-13T03:40:29.962Z,99341.50
2023-04-13T03:42:56.746Z,99341.50
2023-04-13T03:45:26.550Z,99346.59
2023-04-13T03:47:56.778Z,99348.53
2023-04-13T03:50:24.633Z,99346.63
2023-04-13T03:52:52.176Z,99342.06
2023-04-13T03:55:18.740Z,99338.25
2023-04-13T03:57:49.037Z,99343.13
2023-04-13T04:00:19.442Z,99346.34
2023-04-13T04:02:58.714Z,99343.94
2023-04-13T04:05:33.115Z,99349.88
2023-04-13T04:08:03.468Z,99350.41
2023-04-13T04:10:30.057Z,99350.66
2023-04-13T04:12:58.249Z,99353.06
2023-04-13T04:15:26.208Z,99352.81
2023-04-13T04:18:00.319Z,99351.69
2023-04-13T04:20:28.452Z,99344.97
2023-04-13T04:22:55.030Z,99345.25
2023-04-13T04:25:27.462Z,99347.16
2023-04-13T04:27:57.637Z,99346.03
2023-04-13T04:30:24.853Z,99340.63
2023-04-13T04:32:55.155Z,99342.50
2023-04-13T04:35:26.150Z,99343.88
2023-04-13T04:37:55.085Z,99347.63
2023-04-13T04:40:23.093Z,99353.22
2023-04-13T04:42:51.272Z,99353.50
2023-04-13T04:45:38.588Z,99352.94
2023-04-13T04:48:07.678Z,99349.44
2023-04-13T04:50:34.185Z,99342.41
2023-04-13T04:53:08.799Z,99341.34
2023-04-13T04:55:35.499Z,99348.09
2023-04-13T04:58:02.737Z,99345.41
2023-04-13T05:00:34.088Z,99351.59
2023-04-13T05:03:08.569Z,99354.03
2023-04-13T05:05:43.737Z,99359.97
2023-04-13T05:08:15.356Z,99355.88
2023-04-13T05:10:48.677Z,99358.88
2023-04-13T05:13:15.128Z,99355.03
2023-04-13T05:15:48.189Z,99364.78
2023-04-13T05:18:18.358Z,99365.81
2023-04-13T05:20:44.819Z,99362.59
2023-04-13T05:23:11.332Z,99359.06
2023-04-13T05:25:44.802Z,99365.75
2023-04-13T05:28:17.376Z,99359.53
2023-04-13T05:30:44.696Z,99365.47
2023-04-13T05:33:12.034Z,99354.69
2023-04-13T05:35:40.366Z,99360.03
2023-04-13T05:38:07.888Z,99363.50
2023-04-13T05:40:35.170Z,99364.84
2023-04-13T05:43:03.220Z,99369.41
2023-04-13T05:45:33.649Z,99374.81
2023-04-13T05:48:07.425Z,99374.69
2023-04-13T05:50:34.076Z,99372.06
2023-04-13T05:53:01.721Z,99383.41
2023-04-13T05:55:36.861Z,99385.56
2023-04-13T05:58:05.887Z,99389.88
2023-04-13T06:00:32.804Z,99391.53
2023-04-13T06:03:05.616Z,99393.09
2023-04-13T06:05:32.929Z,99399.34
2023-04-13T06:07:59.815Z,99384.41
2023-04-13T06:10:26.557Z,99394.41
2023-04-13T06:12:53.219Z,99403.56
2023-04-13T06:15:20.741Z,99399.78
2023-04-13T06:17:50.622Z,99411.91
2023-04-13T06:20:17.080Z,99411.84
2023-04-13T06:22:43.498Z,99413.09
2023-04-13T06:25:12.119Z,99424.19
2023-04-13T06:27:40.434Z,99428.38
2023-04-13T06:30:07.669Z,99435.41
2023-04-13T06:32:36.542Z,99433.09
2023-04-13T06:35:07.734Z,99428.84
2023-04-13T06:37:40.652Z,99440.38
2023-04-13T06:40:14.838Z,99433.03
2023-04-13T06:42:48.397Z,99441.38
2023-04-13T06:45:34.379Z,99448.44
2023-04-13T06:48:08.514Z,99439.00
2023-04-13T06:50:37.572Z,99440.84
2023-04-13T06:53:05.854Z,99432.63
2023-04-13T06:55:32.860Z,99440.50
2023-04-13T06:57:59.252Z,99446.03
2023-04-13T07:00:30.208Z,99444.44
2023-04-13T07:02:58.998Z,99456.88
2023-04-13T07:05:25.889Z,99456.00
2023-04-13T07:07:54.134Z,99471.44
2023-04-13T07:10:21.453Z,99467.00
2023-04-13T07:12:48.680Z,99469.41
2023-04-13T07:15:16.726Z,99472.81
2023-04-13T07:17:43.301Z,99467.34
2023-04-13T07:20:13.480Z,99478.06
2023-04-13T07:22:40.566Z,99475.06
2023-04-13T07:25:09.298Z,99471.22
2023-04-13T07:27:37.878Z,99472.22
2023-04-13T07:30:04.880Z,99493.78
2023-04-13T07:32:41.573Z,99490.97
2023-04-13T07:35:09.515Z,99492.28
2023-04-13T07:37:38.161Z,99501.50
2023-04-13T07:40:06.958Z,99506.28
2023-04-13T07:42:33.363Z,99506.38
2023-04-13T07:44:59.764Z,99514.97
2023-04-13T07:47:28.810Z,99519.97
2023-04-13T07:50:00.658Z,99530.47
2023-04-13T07:52:28.350Z,99532.72
2023-04-13T07:54:55.049Z,99540.59
2023-04-13T07:57:22.574Z,99544.75
2023-04-13T07:59:55.625Z,99539.59
2023-04-13T08:02:23.464Z,99552.56
2023-04-13T08:04:53.089Z,99550.97
2023-04-13T08:07:24.125Z,99569.25
2023-04-13T08:09:52.407Z,99560.78
2023-04-13T08:12:19.258Z,99566.25
2023-04-13T08:14:47.196Z,99568.97
2023-04-13T08:17:13.829Z,99573.69
2023-04-13T08:19:41.301Z,99580.22
2023-04-13T08:22:11.861Z,99575.84
2023-04-13T08:24:38.756Z,99581.66
2023-04-13T08:27:07.806Z,99589.34
2023-04-13T08:29:34.274Z,99599.81
2023-04-13T08:32:01.611Z,99592.44
2023-04-13T08:34:29.657Z,99590.56
2023-04-13T08:36:56.095Z,99598.00
2023-04-13T08:39:25.298Z,99610.50
2023-04-13T08:41:52.075Z,99599.66
2023-04-13T08:44:20.690Z,99602.25
2023-04-13T08:46:51.340Z,99606.59
2023-04-13T08:49:25.811Z,99605.28
2023-04-13T08:52:16.871Z,99607.13
2023-04-13T08:54:47.068Z,99602.97
2023-04-13T08:57:19.907Z,99610.56
2023-04-13T08:59:49.387Z,99606.50
2023-04-13T09:02:16.207Z,99613.06
2023-04-13T09:05:01.065Z,99627.47
2023-04-13T09:07:32.932Z,99621.84
2023-04-13T09:10:09.576Z,99639.56
2023-04-13T09:12:36.741Z,99657.09
2023-04-13T09:15:07.996Z,99651.66
2023-04-13T09:17:43.734Z,99665.09
2023-04-13T09:20:12.138Z,99668.59
2023-04-13T09:22:39.380Z,99670.00
2023-04-13T09:25:22.855Z,99677.56
2023-04-13T09:27:51.934Z,99668.72
2023-04-13T09:30:20.533Z,99668.25
2023-04-13T09:32:47.223Z,99658.94
2023-04-13T09:35:13.721Z,99661.25
2023-04-13T09:37:43.484Z,99671.16
2023-04-13T09:40:18.801Z,99672.78
2023-04-13T09:42:59.570Z,99675.50
2023-04-13T09:45:37.789Z,99675.44
2023-04-13T09:48:09.555Z,99677.56
2023-04-13T09:50:37.075Z,99672.75
2023-04-13T09:53:10.653Z,99677.66
2023-04-13T09:55:38.625Z,99683.81
2023-04-13T09:58:25.395Z,99672.63
2023-04-13T10:00:53.378Z,99680.56
2023-04-13T10:03:22.328Z,99683.97
2023-04-13T10:08:27.314Z,99689.81
2023-04-13T10:11:04.061Z,99688.81
2023-04-13T10:13:37.242Z,99693.50
2023-04-13T10:16:26.144Z,99691.22
2023-04-13T10:19:09.908Z,99693.06
2023-04-13T10:21:42.870Z,99690.63
2023-04-13T10:24:14.031Z,99685.78
2023-04-13T10:26:43.779Z,99700.16
2023-04-13T10:29:17.829Z,99700.22
2023-04-13T10:31:47.059Z,99709.97
2023-04-13T10:34:30.702Z,99713.19
2023-04-13T10:37:04.019Z,99712.38
2023-04-13T10:39:33.399Z,99720.44
2023-04-13T10:42:05.757Z,99719.03
2023-04-13T10:44:46.768Z,99725.06
2023-04-13T10:47:15.393Z,99719.41
2023-04-13T10:49:43.773Z,99727.47
2023-04-13T10:52:11.492Z,99736.59
2023-04-13T10:54:39.577Z,99740.44
2023-04-13T10:59:04.791Z,99746.97
2023-04-13T11:01:32.002Z,99752.53
2023-04-13T11:04:16.832Z,99748.63
2023-04-13T11:06:45.338Z,99752.75
2023-04-13T11:09:15.943Z,99750.94
2023-04-13T11:11:51.290Z,99761.53
2023-04-13T11:14:22.132Z,99759.94
2023-04-13T11:16:49.418Z,99752.47
2023-04-13T11:19:16.002Z,99750.13
2023-04-13T11:21:44.814Z,99749.84
2023-04-13T11:24:11.529Z,99758.19
2023-04-13T11:26:38.758Z,99759.47
2023-04-13T11:29:05.699Z,99760.03
2023-04-13T11:31:40.009Z,99768.88
2023-04-13T11:34:09.628Z,99772.72
2023-04-13T11:36:39.747Z,99794.91
2023-04-13T11:39:10.751Z,99786.53
2023-04-13T11:41:41.808Z,99813.00
2023-04-13T11:44:11.246Z,99786.72
2023-04-13T11:46:37.881Z,99790.75
2023-04-13T11:49:04.666Z,99796.56
2023-04-13T11:51:32.420Z,99797.88
2023-04-13T11:53:59.623Z,99807.16
2023-04-13T11:56:26.319Z,99807.19
2023-04-13T11:58:53.218Z,99812.91
2023-04-13T12:01:26.929Z,99802.25
2023-04-13T12:04:16.062Z,99799.41
2023-04-13T12:06:46.232Z,99814.41
2023-04-13T12:09:16.618Z,99821.53
2023-04-13T12:11:49.606Z,99821.00
2023-04-13T12:19:24.349Z,99818.59
2023-04-13T12:21:56.464Z,99824.13
2023-04-13T12:24:42.768Z,99822.28
2023-04-13T12:27:18.402Z,99827.03
2023-04-13T12:29:45.542Z,99828.81
2023-04-13T12:32:16.960Z,99829.41
2023-04-13T12:34:44.715Z,99828.31
2023-04-13T12:37:11.758Z,99827.97
2023-04-13T12:39:38.978Z,99838.69
2023-04-13T12:42:06.276Z,99830.28
2023-04-13T12:44:34.368Z,99828.72
2023-04-13T12:47:01.233Z,99828.44
2023-04-13T12:49:27.733Z,99840.22
2023-04-13T12:51:54.329Z,99836.94
2023-04-13T12:54:20.892Z,99842.38
2023-04-13T12:56:47.491Z,99839.00
2023-04-13T12:59:14.072Z,99835.56
2023-04-13T13:01:40.884Z,99851.56
2023-04-13T13:04:07.803Z,99845.50
2023-04-13T13:06:35.033Z,99855.72
2023-04-13T13:09:02.290Z,99855.91
2023-04-13T13:11:28.941Z,99861.88
2023-04-13T13:13:55.382Z,99864.81
2023-04-13T13:16:21.860Z,99867.94
2023-04-13T13:18:51.381Z,99874.31
2023-04-13T13:21:19.180Z,99879.59
2023-04-13T13:23:46.037Z,99892.91
2023-04-13T13:26:24.006Z,99885.47
2023-04-13T13:28:52.050Z,99889.38
2023-04-13T13:31:19.029Z,99890.50
2023-04-13T13:33:45.641Z,99889.81
2023-04-13T13:36:13.942Z,99888.69
2023-04-13T13:38:41.177Z,99896.78
2023-04-13T13:41:08.031Z,99891.81
2023-04-13T13:43:35.939Z,99889.03
2023-04-13T13:46:02.478Z,99899.91
2023-04-13T13:48:29.045Z,99902.22
2023-04-13T13:51:06.914Z,99903.44
2023-04-13T13:53:34.368Z,99899.19
2023-04-13T13:56:03.565Z,99914.19
2023-04-13T13:58:29.946Z,99916.06
2023-04-13T14:00:56.407Z,99913.91
2023-04-13T14:03:22.967Z,99915.84
2023-04-13T14:05:49.572Z,99914.97
2023-04-13T14:08:16.207Z,99918.38
2023-04-13T14:10:48.202Z,99917.25
2023-04-13T14:13:14.730Z,99924.44
2023-04-13T14:15:41.161Z,99928.28
2023-04-13T14:18:10.715Z,99930.38
2023-04-13T14:20:38.920Z,99929.59
2023-04-13T14:23:07.398Z,99942.78
2023-04-13T14:25:33.777Z,99948.84
2023-04-13T14:28:00.864Z,99971.53
2023-04-13T14:30:28.410Z,99962.84
2023-04-13T14:32:55.247Z,99973.91
2023-04-13T14:35:21.833Z,99964.50
2023-04-13T14:37:48.429Z,99959.34
2023-04-13T14:40:17.020Z,99956.19
2023-04-13T14:42:43.687Z,99950.03
2023-04-13T14:45:12.266Z,99955.28
2023-04-13T14:47:40.140Z,99952.75
2023-04-13T14:50:08.229Z,99961.69
2023-04-13T14:52:34.674Z,99951.97
2023-04-13T14:55:02.048Z,99956.28
2023-04-13T14:57:28.980Z,99965.28
2023-04-13T14:59:56.499Z,99964.41
2023-04-13T15:02:23.481Z,99960.41
2023-04-13T15:04:50.397Z,99967.94
2023-04-13T15:07:18.296Z,99965.41
2023-04-13T15:09:44.719Z,99974.25
2023-04-13T15:12:13.488Z,99973.88
2023-04-13T15:14:40.983Z,99972.34
2023-04-13T15:17:08.401Z,99972.16
2023-04-13T15:19:34.961Z,99978.44
2023-04-13T15:22:01.353Z,99983.81
2023-04-13T15:24:27.788Z,99981.34
2023-04-13T15:26:54.401Z,99996.75
2023-04-13T15:29:20.993Z,99998.22
2023-04-13T15:31:47.535Z,99993.78
2023-04-13T15:34:13.988Z,100006.97
2023-04-13T15:36:43.736Z,100009.19
2023-04-13T15:39:10.190Z,100014.25
2023-04-13T15:41:38.176Z,100014.00
2023-04-13T15:44:04.744Z,100028.72
2023-04-13T15:46:32.425Z,100040.34
2023-04-13T15:48:59.681Z,100048.25
2023-04-13T15:51:27.637Z,100058.44
2023-04-13T15:53:54.080Z,100066.09
2023-04-13T15:56:21.186Z,100064.94
2023-04-13T15:58:47.566Z,100069.66
2023-04-13T16:01:14.205Z,100067.59
2023-04-13T16:03:41.440Z,100077.34
2023-04-13T16:06:08.585Z,100089.25
2023-04-13T16:08:35.100Z,100088.09
2023-04-13T16:11:01.612Z,100091.38
2023-04-13T16:13:46.796Z,100087.94
2023-04-13T16:16:14.674Z,100092.63
2023-04-13T16:18:41.375Z,100088.81
2023-04-13T16:21:20.005Z,100097.66
2023-04-13T16:23:46.516Z,100096.38
2023-04-13T16:26:12.957Z,100104.22
2023-04-13T16:28:41.011Z,100109.19
2023-04-13T16:31:11.163Z,100116.00
2023-04-13T16:33:37.722Z,100120.75
2023-04-13T16:36:04.681Z,100119.06
2023-04-13T16:38:31.352Z,100121.34
2023-04-13T16:40:57.780Z,100132.41
2023-04-13T16:43:24.182Z,100127.53
2023-04-13T16:45:51.544Z,100128.34
2023-04-13T16:48:18.037Z,100132.41
2023-04-13T16:50:44.429Z,100131.69
2023-04-13T16:53:11.523Z,100141.88
2023-04-13T16:55:45.332Z,100135.72
2023-04-13T16:58:12.190Z,100134.91
2023-04-13T17:00:39.576Z,100133.53
2023-04-13T17:03:06.393Z,100129.75
2023-04-13T17:05:33.169Z,100139.25
2023-04-13T17:08:00.569Z,100141.44
2023-04-13T17:10:27.234Z,100143.03
2023-04-13T17:12:53.623Z,100148.19
2023-04-13T17:15:20.466Z,100140.78
2023-04-13T17:17:47.084Z,100150.13
2023-04-13T17:20:16.383Z,100142.22
2023-04-13T17:22:44.028Z,100147.63
2023-04-13T17:25:10.796Z,100151.09
2023-04-13T17:27:37.895Z,100147.22
2023-04-13T17:30:05.086Z,100141.75
2023-04-13T17:32:31.577Z,100145.53
2023-04-13T17:34:58.481Z,100152.16
2023-04-13T17:37:24.922Z,100155.81
2023-04-13T17:39:51.456Z,100156.09
2023-04-13T17:42:18.367Z,100159.09
2023-04-13T17:44:44.816Z,100161.81
2023-04-13T17:47:11.283Z,100167.28
2023-04-13T17:49:38.450Z,100180.06
2023-04-13T17:52:05.198Z,100185.50
2023-04-13T17:54:31.698Z,100186.66
2023-04-13T17:56:58.122Z,100180.69
2023-04-13T17:59:24.661Z,100183.16
2023-04-13T18:01:54.460Z,100182.91
2023-04-13T18:04:21.450Z,100193.81
2023-04-13T18:06:48.509Z,100191.41
2023-04-13T18:09:14.995Z,100190.91
2023-04-13T18:11:41.524Z,100200.41
2023-04-13T18:14:09.470Z,100204.50
2023-04-13T18:16:36.509Z,100200.94
2023-04-13T18:19:03.953Z,100202.84
2023-04-13T18:21:32.133Z,100207.22
2023-04-13T18:24:01.117Z,100204.53
2023-04-13T18:26:28.854Z,100209.44
2023-04-13T18:28:55.311Z,100217.63
2023-04-13T18:31:21.863Z,100216.84
2023-04-13T18:33:48.298Z,100228.25
2023-04-13T18:36:16.368Z,100237.72
2023-04-13T18:38:43.815Z,100240.19
2023-04-13T18:41:11.040Z,100242.94
2023-04-13T18:44:03.667Z,100250.00
2023-04-13T18:46:30.225Z,100256.00
2023-04-13T18:48:56.686Z,100254.91
2023-04-13T18:51:23.253Z,100261.16
2023-04-13T18:53:50.182Z,100270.88
2023-04-13T18:56:16.618Z,100267.66
2023-04-13T18:58:44.268Z,100275.25
2023-04-13T19:01:17.947Z,100280.66
2023-04-13T19:03:45.587Z,100278.78
2023-04-13T19:06:12.833Z,100277.41
2023-04-13T19:08:40.038Z,100280.97
2023-04-13T19:11:11.509Z,100290.19
2023-04-13T19:13:38.288Z,100289.91
2023-04-13T19:16:06.042Z,100304.25
2023-04-13T19:18:33.023Z,100311.59
2023-04-13T19:21:02.538Z,100302.09
2023-04-13T19:23:29.217Z,100304.81
2023-04-13T19:25:55.642Z,100305.66
2023-04-13T19:28:22.531Z,100309.44
2023-04-13T19:30:48.938Z,100304.03
2023-04-13T19:33:15.398Z,100304.56
2023-04-13T19:35:41.855Z,100309.44
2023-04-13T19:38:17.364Z,100310.25
2023-04-13T19:40:44.023Z,100309.44
2023-04-13T19:43:10.583Z,100313.75
2023-04-13T19:45:39.599Z,100317.00
2023-04-13T19:48:06.583Z,100324.84
2023-04-13T19:50:33.145Z,100321.59
2023-04-13T19:52:59.562Z,100314.81
2023-04-13T19:55:27.024Z,100324.25
2023-04-13T19:57:53.483Z,100313.69
2023-04-13T20:00:22.853Z,100320.72
2023-04-13T20:02:51.649Z,100315.56
2023-04-13T20:05:20.191Z,100316.59
2023-04-13T20:07:46.867Z,100327.94
2023-04-13T20:10:13.512Z,100333.59
2023-04-13T20:12:40.339Z,100333.31
2023-04-13T20:15:08.709Z,100333.81
2023-04-13T20:17:35.264Z,100340.00
2023-04-13T20:20:01.944Z,100342.41
2023-04-13T20:22:29.003Z,100338.63
2023-04-13T20:24:55.475Z,100333.19
2023-04-13T20:27:22.756Z,100335.03
2023-04-13T20:29:50.329Z,100339.09
2023-04-13T20:32:16.899Z,100342.56
2023-04-13T20:34:44.175Z,100339.53
2023-04-13T20:37:10.647Z,100342.47
2023-04-13T20:39:40.386Z,100350.84
2023-04-13T20:42:08.554Z,100353.00
2023-04-13T20:44:37.960Z,100360.22
2023-04-13T20:47:05.181Z,100355.94
2023-04-13T20:49:31.695Z,100353.72
2023-04-13T20:51:58.150Z,100357.44
2023-04-13T20:54:24.638Z,100356.59
2023-04-13T20:56:51.138Z,100349.56
2023-04-13T20:59:18.381Z,100356.56
2023-04-13T21:01:45.445Z,100363.53
2023-04-13T21:04:12.078Z,100362.41
2023-04-13T21:06:38.759Z,100360.75
2023-04-13T21:09:05.783Z,100361.25
2023-04-13T21:11:32.590Z,100368.25
2023-04-13T21:13:59.112Z,100363.91
2023-04-13T21:16:26.499Z,100363.38
2023-04-13T21:18:53.832Z,100369.81
2023-04-13T21:21:23.264Z,100374.66
2023-04-13T21:23:53.639Z,100373.34
2023-04-13T21:26:20.679Z,100373.06
2023-04-13T21:28:47.114Z,100360.66
2023-04-13T21:31:14.019Z,100369.38
2023-04-13T21:33:41.395Z,100362.03
2023-04-13T21:38:47.201Z,100357.81
2023-04-13T21:41:18.552Z,100362.25
2023-04-13T21:43:45.701Z,100363.22
2023-04-13T21:46:14.126Z,100365.56
2023-04-13T21:48:41.394Z,100370.34
2023-04-13T21:51:08.934Z,100357.59
2023-04-13T21:53:36.736Z,100366.00
2023-04-13T21:56:03.946Z,100357.03
2023-04-13T21:58:44.577Z,100367.19
2023-04-13T22:01:13.046Z,100374.47
2023-04-13T22:03:46.434Z,100367.91
2023-04-13T22:06:13.917Z,100364.63
2023-04-13T22:08:43.558Z,100374.03
2023-04-13T22:11:10.644Z,100376.25
2023-04-13T22:13:39.902Z,100376.72
2023-04-13T22:16:11.763Z,100377.47
2023-04-13T22:18:38.816Z,100379.13
2023-04-13T22:21:05.462Z,100379.38
2023-04-13T22:23:31.860Z,100377.16
2023-04-13T22:25:58.928Z,100382.81
2023-04-13T22:28:28.525Z,100380.59
2023-04-13T22:30:54.989Z,100383.53
2023-04-13T22:33:21.619Z,100389.44
2023-04-13T22:35:51.632Z,100387.00
2023-04-13T22:38:18.930Z,100395.59
2023-04-13T22:40:45.757Z,100399.91
2023-04-13T22:43:12.182Z,100406.38
2023-04-13T22:45:38.706Z,100407.91
2023-04-13T22:48:05.374Z,100403.09
2023-04-13T22:50:31.871Z,100399.81
2023-04-13T22:52:58.292Z,100405.72
2023-04-13T22:55:24.735Z,100414.88
2023-04-13T22:57:51.169Z,100413.00
2023-04-13T23:00:20.548Z,100414.56
2023-04-13T23:02:52.879Z,100416.91
2023-04-13T23:05:19.807Z,100417.59
2023-04-13T23:07:46.218Z,100421.50
2023-04-13T23:10:13.616Z,100417.75
2023-04-13T23:12:41.867Z,100414.72
2023-04-13T23:15:08.936Z,100425.34
2023-04-13T23:17:35.550Z,100419.38
2023-04-13T23:20:05.785Z,100419.78
2023-04-13T23:22:33.258Z,100423.78
2023-04-13T23:24:59.941Z,100419.22
2023-04-13T23:27:26.348Z,100422.06
2023-04-13T23:29:52.770Z,100421.19
2023-04-13T23:32:19.666Z,100417.66
2023-04-13T23:34:46.241Z,100412.41
2023-04-13T23:37:12.842Z,100412.81
2023-04-13T23:39:39.942Z,100410.13
2023-04-13T23:42:06.691Z,100410.72
2023-04-13T23:44:33.165Z,100410.19
2023-04-13T23:46:59.631Z,100402.50
2023-04-13T23:49:26.032Z,100410.03
2023-04-13T23:51:52.773Z,100407.66
2023-04-13T23:54:19.214Z,100419.75
2023-04-13T23:56:45.660Z,100425.47
2023-04-13T23:59:12.099Z,100418.09
